sensor_id;sensor_type;location;lat;lon;timestamp;P1;durP1;ratioP1;P2;durP2;ratioP2
11646;SDS011;5880;52.342;9.662;2024-02-04T00:00:47;5.47;;;3.50;;
11646;SDS011;5880;52.342;9.662;2024-02-04T00:03:13;5.07;;;3.77;;
11646;SDS011;5880;52.342;9.662;2024-02-04T00:05:38;4.07;;;3.00;;
11646;SDS011;5880;52.342;9.662;2024-02-04T00:08:04;4.07;;;3.30;;
11646;SDS011;5880;52.342;9.662;2024-02-04T00:10:30;4.53;;;3.50;;
11646;SDS011;5880;52.342;9.662;2024-02-04T00:12:55;4.67;;;3.63;;
11646;SDS011;5880;52.342;9.662;2024-02-04T00:15:22;3.83;;;3.30;;
11646;SDS011;5880;52.342;9.662;2024-02-04T00:17:47;5.33;;;3.60;;
11646;SDS011;5880;52.342;9.662;2024-02-04T00:20:13;4.17;;;3.20;;
11646;SDS011;5880;52.342;9.662;2024-02-04T00:22:39;5.60;;;3.40;;
11646;SDS011;5880;52.342;9.662;2024-02-04T00:25:04;5.93;;;3.50;;
11646;SDS011;5880;52.342;9.662;2024-02-04T00:27:31;3.80;;;3.43;;
11646;SDS011;5880;52.342;9.662;2024-02-04T00:29:57;5.30;;;3.43;;
11646;SDS011;5880;52.342;9.662;2024-02-04T00:32:23;5.17;;;3.37;;
11646;SDS011;5880;52.342;9.662;2024-02-04T00:34:50;5.13;;;3.50;;
11646;SDS011;5880;52.342;9.662;2024-02-04T00:37:16;4.77;;;3.60;;
11646;SDS011;5880;52.342;9.662;2024-02-04T00:39:42;5.40;;;4.07;;
11646;SDS011;5880;52.342;9.662;2024-02-04T00:42:08;3.73;;;3.40;;
11646;SDS011;5880;52.342;9.662;2024-02-04T00:44:33;5.77;;;4.00;;
11646;SDS011;5880;52.342;9.662;2024-02-04T00:46:59;6.67;;;4.13;;
11646;SDS011;5880;52.342;9.662;2024-02-04T00:49:24;5.40;;;4.00;;
11646;SDS011;5880;52.342;9.662;2024-02-04T00:51:51;6.50;;;4.33;;
11646;SDS011;5880;52.342;9.662;2024-02-04T00:54:17;6.57;;;3.83;;
11646;SDS011;5880;52.342;9.662;2024-02-04T00:56:43;4.97;;;4.10;;
11646;SDS011;5880;52.342;9.662;2024-02-04T00:59:09;5.43;;;3.93;;
11646;SDS011;5880;52.342;9.662;2024-02-04T01:01:35;5.30;;;3.80;;
11646;SDS011;5880;52.342;9.662;2024-02-04T01:04:00;4.60;;;3.83;;
11646;SDS011;5880;52.342;9.662;2024-02-04T01:06:26;5.33;;;3.93;;
11646;SDS011;5880;52.342;9.662;2024-02-04T01:08:53;4.50;;;3.73;;
11646;SDS011;5880;52.342;9.662;2024-02-04T01:11:18;5.40;;;3.27;;
11646;SDS011;5880;52.342;9.662;2024-02-04T01:13:44;5.90;;;3.63;;
11646;SDS011;5880;52.342;9.662;2024-02-04T01:16:10;5.07;;;3.63;;
11646;SDS011;5880;52.342;9.662;2024-02-04T01:18:35;5.37;;;3.87;;
11646;SDS011;5880;52.342;9.662;2024-02-04T01:21:01;5.17;;;3.27;;
11646;SDS011;5880;52.342;9.662;2024-02-04T01:23:27;4.60;;;3.60;;
11646;SDS011;5880;52.342;9.662;2024-02-04T01:25:52;7.00;;;4.20;;
11646;SDS011;5880;52.342;9.662;2024-02-04T01:28:18;6.00;;;4.00;;
11646;SDS011;5880;52.342;9.662;2024-02-04T01:30:44;4.40;;;3.97;;
11646;SDS011;5880;52.342;9.662;2024-02-04T01:33:10;6.27;;;3.87;;
11646;SDS011;5880;52.342;9.662;2024-02-04T01:35:35;6.73;;;4.33;;
11646;SDS011;5880;52.342;9.662;2024-02-04T01:38:01;7.83;;;4.63;;
11646;SDS011;5880;52.342;9.662;2024-02-04T01:40:27;5.77;;;4.17;;
11646;SDS011;5880;52.342;9.662;2024-02-04T01:42:52;5.20;;;4.70;;
11646;SDS011;5880;52.342;9.662;2024-02-04T01:45:18;5.93;;;4.67;;
11646;SDS011;5880;52.342;9.662;2024-02-04T01:47:43;6.33;;;4.70;;
11646;SDS011;5880;52.342;9.662;2024-02-04T01:50:09;6.73;;;4.50;;
11646;SDS011;5880;52.342;9.662;2024-02-04T01:52:36;6.37;;;4.40;;
11646;SDS011;5880;52.342;9.662;2024-02-04T01:55:05;5.50;;;4.70;;
11646;SDS011;5880;52.342;9.662;2024-02-04T01:57:32;5.87;;;4.67;;
11646;SDS011;5880;52.342;9.662;2024-02-04T01:59:59;7.90;;;4.97;;
11646;SDS011;5880;52.342;9.662;2024-02-04T02:02:26;6.60;;;4.93;;
11646;SDS011;5880;52.342;9.662;2024-02-04T02:04:51;7.87;;;4.77;;
11646;SDS011;5880;52.342;9.662;2024-02-04T02:07:17;6.87;;;4.80;;
11646;SDS011;5880;52.342;9.662;2024-02-04T02:09:46;6.90;;;4.83;;
11646;SDS011;5880;52.342;9.662;2024-02-04T02:15:07;7.37;;;4.73;;
11646;SDS011;5880;52.342;9.662;2024-02-04T02:17:45;5.37;;;4.53;;
11646;SDS011;5880;52.342;9.662;2024-02-04T02:20:21;6.60;;;5.07;;
11646;SDS011;5880;52.342;9.662;2024-02-04T02:23:02;6.47;;;5.00;;
11646;SDS011;5880;52.342;9.662;2024-02-04T02:25:33;6.87;;;5.13;;
11646;SDS011;5880;52.342;9.662;2024-02-04T02:28:02;8.47;;;5.37;;
11646;SDS011;5880;52.342;9.662;2024-02-04T02:30:29;6.50;;;5.10;;
11646;SDS011;5880;52.342;9.662;2024-02-04T02:32:55;6.10;;;4.90;;
11646;SDS011;5880;52.342;9.662;2024-02-04T02:35:22;6.80;;;5.40;;
11646;SDS011;5880;52.342;9.662;2024-02-04T02:43:10;7.77;;;5.20;;
11646;SDS011;5880;52.342;9.662;2024-02-04T02:45:38;7.50;;;5.20;;
11646;SDS011;5880;52.342;9.662;2024-02-04T02:48:07;8.40;;;5.23;;
11646;SDS011;5880;52.342;9.662;2024-02-04T02:50:34;5.97;;;5.00;;
11646;SDS011;5880;52.342;9.662;2024-02-04T02:53:04;5.93;;;4.90;;
11646;SDS011;5880;52.342;9.662;2024-02-04T02:55:30;6.27;;;4.83;;
11646;SDS011;5880;52.342;9.662;2024-02-04T02:57:55;6.90;;;5.20;;
11646;SDS011;5880;52.342;9.662;2024-02-04T03:00:21;6.90;;;4.97;;
11646;SDS011;5880;52.342;9.662;2024-02-04T03:02:47;7.53;;;5.13;;
11646;SDS011;5880;52.342;9.662;2024-02-04T03:05:13;6.30;;;5.20;;
11646;SDS011;5880;52.342;9.662;2024-02-04T03:07:41;6.63;;;4.80;;
11646;SDS011;5880;52.342;9.662;2024-02-04T03:10:07;5.87;;;4.87;;
11646;SDS011;5880;52.342;9.662;2024-02-04T03:12:34;8.07;;;5.40;;
11646;SDS011;5880;52.342;9.662;2024-02-04T03:15:00;8.73;;;5.20;;
11646;SDS011;5880;52.342;9.662;2024-02-04T03:17:26;7.57;;;5.07;;
11646;SDS011;5880;52.342;9.662;2024-02-04T03:19:51;6.40;;;4.80;;
11646;SDS011;5880;52.342;9.662;2024-02-04T03:22:19;6.17;;;4.73;;
11646;SDS011;5880;52.342;9.662;2024-02-04T03:24:48;6.90;;;4.63;;
11646;SDS011;5880;52.342;9.662;2024-02-04T03:27:16;7.13;;;5.13;;
11646;SDS011;5880;52.342;9.662;2024-02-04T03:29:42;8.43;;;4.83;;
11646;SDS011;5880;52.342;9.662;2024-02-04T03:32:10;6.53;;;4.53;;
11646;SDS011;5880;52.342;9.662;2024-02-04T03:34:36;5.63;;;4.40;;
11646;SDS011;5880;52.342;9.662;2024-02-04T03:37:02;7.40;;;4.90;;
11646;SDS011;5880;52.342;9.662;2024-02-04T03:39:28;6.87;;;5.10;;
11646;SDS011;5880;52.342;9.662;2024-02-04T03:41:53;6.33;;;4.93;;
11646;SDS011;5880;52.342;9.662;2024-02-04T03:44:19;6.17;;;5.27;;
11646;SDS011;5880;52.342;9.662;2024-02-04T03:46:48;9.23;;;5.90;;
11646;SDS011;5880;52.342;9.662;2024-02-04T03:49:15;7.77;;;5.60;;
11646;SDS011;5880;52.342;9.662;2024-02-04T03:51:41;6.67;;;5.00;;
11646;SDS011;5880;52.342;9.662;2024-02-04T03:54:07;8.10;;;5.33;;
11646;SDS011;5880;52.342;9.662;2024-02-04T03:56:33;9.43;;;5.17;;
11646;SDS011;5880;52.342;9.662;2024-02-04T03:58:58;6.67;;;5.20;;
11646;SDS011;5880;52.342;9.662;2024-02-04T04:01:24;7.97;;;5.33;;
11646;SDS011;5880;52.342;9.662;2024-02-04T04:03:50;7.10;;;4.97;;
11646;SDS011;5880;52.342;9.662;2024-02-04T04:06:15;7.83;;;5.77;;
11646;SDS011;5880;52.342;9.662;2024-02-04T04:08:41;7.03;;;5.50;;
11646;SDS011;5880;52.342;9.662;2024-02-04T04:11:08;9.27;;;6.27;;
11646;SDS011;5880;52.342;9.662;2024-02-04T04:13:35;7.37;;;5.77;;
11646;SDS011;5880;52.342;9.662;2024-02-04T04:16:02;8.07;;;6.30;;
11646;SDS011;5880;52.342;9.662;2024-02-04T04:18:29;8.73;;;5.70;;
11646;SDS011;5880;52.342;9.662;2024-02-04T04:20:54;8.33;;;6.23;;
11646;SDS011;5880;52.342;9.662;2024-02-04T04:23:21;7.67;;;5.20;;
11646;SDS011;5880;52.342;9.662;2024-02-04T04:25:46;7.07;;;5.73;;
11646;SDS011;5880;52.342;9.662;2024-02-04T04:28:12;7.67;;;5.70;;
11646;SDS011;5880;52.342;9.662;2024-02-04T04:30:37;10.30;;;6.50;;
11646;SDS011;5880;52.342;9.662;2024-02-04T04:33:03;8.30;;;6.37;;
11646;SDS011;5880;52.342;9.662;2024-02-04T04:35:29;10.00;;;7.17;;
11646;SDS011;5880;52.342;9.662;2024-02-04T04:37:55;10.23;;;6.87;;
11646;SDS011;5880;52.342;9.662;2024-02-04T04:40:20;10.67;;;7.17;;
11646;SDS011;5880;52.342;9.662;2024-02-04T04:42:46;8.57;;;6.60;;
11646;SDS011;5880;52.342;9.662;2024-02-04T04:45:11;9.97;;;7.00;;
11646;SDS011;5880;52.342;9.662;2024-02-04T04:47:39;11.93;;;7.17;;
11646;SDS011;5880;52.342;9.662;2024-02-04T04:50:04;9.40;;;7.00;;
11646;SDS011;5880;52.342;9.662;2024-02-04T04:52:31;9.20;;;7.27;;
11646;SDS011;5880;52.342;9.662;2024-02-04T04:54:56;13.03;;;7.53;;
11646;SDS011;5880;52.342;9.662;2024-02-04T04:57:22;10.43;;;7.27;;
11646;SDS011;5880;52.342;9.662;2024-02-04T04:59:48;9.93;;;7.57;;
11646;SDS011;5880;52.342;9.662;2024-02-04T05:02:14;9.83;;;6.83;;
11646;SDS011;5880;52.342;9.662;2024-02-04T05:04:43;8.33;;;6.63;;
11646;SDS011;5880;52.342;9.662;2024-02-04T05:07:10;11.13;;;6.93;;
11646;SDS011;5880;52.342;9.662;2024-02-04T05:09:36;8.70;;;6.70;;
11646;SDS011;5880;52.342;9.662;2024-02-04T05:12:02;8.17;;;6.30;;
11646;SDS011;5880;52.342;9.662;2024-02-04T05:14:28;8.90;;;7.00;;
11646;SDS011;5880;52.342;9.662;2024-02-04T05:16:54;9.37;;;7.40;;
11646;SDS011;5880;52.342;9.662;2024-02-04T05:19:20;10.47;;;6.80;;
11646;SDS011;5880;52.342;9.662;2024-02-04T05:21:46;9.77;;;6.93;;
11646;SDS011;5880;52.342;9.662;2024-02-04T05:24:11;7.53;;;6.50;;
11646;SDS011;5880;52.342;9.662;2024-02-04T05:26:37;8.33;;;6.40;;
11646;SDS011;5880;52.342;9.662;2024-02-04T05:29:03;8.93;;;6.40;;
11646;SDS011;5880;52.342;9.662;2024-02-04T05:31:28;8.03;;;6.10;;
11646;SDS011;5880;52.342;9.662;2024-02-04T05:33:55;7.17;;;5.57;;
11646;SDS011;5880;52.342;9.662;2024-02-04T05:36:21;5.60;;;4.80;;
11646;SDS011;5880;52.342;9.662;2024-02-04T05:38:47;6.20;;;4.93;;
11646;SDS011;5880;52.342;9.662;2024-02-04T05:41:13;6.13;;;4.67;;
11646;SDS011;5880;52.342;9.662;2024-02-04T05:43:38;5.57;;;4.63;;
11646;SDS011;5880;52.342;9.662;2024-02-04T05:46:04;7.00;;;4.73;;
11646;SDS011;5880;52.342;9.662;2024-02-04T05:48:30;5.77;;;4.80;;
11646;SDS011;5880;52.342;9.662;2024-02-04T05:50:56;5.43;;;4.40;;
11646;SDS011;5880;52.342;9.662;2024-02-04T05:53:21;8.20;;;4.50;;
11646;SDS011;5880;52.342;9.662;2024-02-04T05:55:47;6.47;;;4.57;;
11646;SDS011;5880;52.342;9.662;2024-02-04T05:58:13;7.30;;;5.10;;
11646;SDS011;5880;52.342;9.662;2024-02-04T06:00:39;7.37;;;4.13;;
11646;SDS011;5880;52.342;9.662;2024-02-04T06:03:05;4.20;;;3.80;;
11646;SDS011;5880;52.342;9.662;2024-02-04T06:05:31;5.60;;;3.97;;
11646;SDS011;5880;52.342;9.662;2024-02-04T06:07:57;6.07;;;4.23;;
11646;SDS011;5880;52.342;9.662;2024-02-04T06:10:23;6.00;;;4.03;;
11646;SDS011;5880;52.342;9.662;2024-02-04T06:12:49;5.47;;;4.10;;
11646;SDS011;5880;52.342;9.662;2024-02-04T06:15:15;5.77;;;4.40;;
11646;SDS011;5880;52.342;9.662;2024-02-04T06:17:41;5.60;;;4.40;;
11646;SDS011;5880;52.342;9.662;2024-02-04T06:20:07;5.60;;;4.27;;
11646;SDS011;5880;52.342;9.662;2024-02-04T06:22:34;5.53;;;4.30;;
11646;SDS011;5880;52.342;9.662;2024-02-04T06:25:00;5.50;;;4.20;;
11646;SDS011;5880;52.342;9.662;2024-02-04T06:27:30;6.47;;;4.33;;
11646;SDS011;5880;52.342;9.662;2024-02-04T06:29:56;4.67;;;3.90;;
11646;SDS011;5880;52.342;9.662;2024-02-04T06:32:22;5.77;;;4.00;;
11646;SDS011;5880;52.342;9.662;2024-02-04T06:34:49;3.70;;;3.40;;
11646;SDS011;5880;52.342;9.662;2024-02-04T06:37:16;4.63;;;3.20;;
11646;SDS011;5880;52.342;9.662;2024-02-04T06:39:42;5.70;;;3.30;;
11646;SDS011;5880;52.342;9.662;2024-02-04T06:42:07;4.43;;;3.10;;
11646;SDS011;5880;52.342;9.662;2024-02-04T06:44:33;4.20;;;2.80;;
11646;SDS011;5880;52.342;9.662;2024-02-04T06:46:59;3.97;;;2.73;;
11646;SDS011;5880;52.342;9.662;2024-02-04T06:49:25;4.43;;;3.03;;
11646;SDS011;5880;52.342;9.662;2024-02-04T06:51:51;3.10;;;2.60;;
11646;SDS011;5880;52.342;9.662;2024-02-04T06:54:21;3.67;;;2.53;;
11646;SDS011;5880;52.342;9.662;2024-02-04T06:56:50;3.50;;;2.60;;
11646;SDS011;5880;52.342;9.662;2024-02-04T06:59:17;5.63;;;2.90;;
11646;SDS011;5880;52.342;9.662;2024-02-04T07:01:43;4.03;;;2.67;;
11646;SDS011;5880;52.342;9.662;2024-02-04T07:04:09;4.50;;;2.90;;
11646;SDS011;5880;52.342;9.662;2024-02-04T07:06:34;4.10;;;2.90;;
11646;SDS011;5880;52.342;9.662;2024-02-04T07:09:00;3.17;;;2.50;;
11646;SDS011;5880;52.342;9.662;2024-02-04T07:11:25;4.37;;;2.90;;
11646;SDS011;5880;52.342;9.662;2024-02-04T07:13:51;2.73;;;2.37;;
11646;SDS011;5880;52.342;9.662;2024-02-04T07:16:23;3.57;;;2.67;;
11646;SDS011;5880;52.342;9.662;2024-02-04T07:18:52;4.23;;;2.47;;
11646;SDS011;5880;52.342;9.662;2024-02-04T07:21:20;3.70;;;2.40;;
11646;SDS011;5880;52.342;9.662;2024-02-04T07:23:46;3.53;;;2.60;;
11646;SDS011;5880;52.342;9.662;2024-02-04T07:26:12;3.37;;;2.37;;
11646;SDS011;5880;52.342;9.662;2024-02-04T07:28:38;2.60;;;2.13;;
11646;SDS011;5880;52.342;9.662;2024-02-04T07:31:03;3.60;;;2.20;;
11646;SDS011;5880;52.342;9.662;2024-02-04T07:33:29;3.77;;;2.07;;
11646;SDS011;5880;52.342;9.662;2024-02-04T07:35:55;2.67;;;1.67;;
11646;SDS011;5880;52.342;9.662;2024-02-04T07:38:20;5.07;;;2.30;;
11646;SDS011;5880;52.342;9.662;2024-02-04T07:40:46;2.80;;;1.57;;
11646;SDS011;5880;52.342;9.662;2024-02-04T07:43:12;2.13;;;1.47;;
11646;SDS011;5880;52.342;9.662;2024-02-04T07:45:37;3.00;;;1.70;;
11646;SDS011;5880;52.342;9.662;2024-02-04T07:48:03;3.97;;;1.60;;
11646;SDS011;5880;52.342;9.662;2024-02-04T07:50:29;2.27;;;1.40;;
11646;SDS011;5880;52.342;9.662;2024-02-04T07:52:55;3.03;;;1.77;;
11646;SDS011;5880;52.342;9.662;2024-02-04T07:55:20;2.20;;;1.43;;
11646;SDS011;5880;52.342;9.662;2024-02-04T07:57:46;2.50;;;1.70;;
11646;SDS011;5880;52.342;9.662;2024-02-04T08:00:12;3.33;;;1.70;;
11646;SDS011;5880;52.342;9.662;2024-02-04T08:02:38;3.37;;;1.90;;
11646;SDS011;5880;52.342;9.662;2024-02-04T08:05:04;3.13;;;1.83;;
11646;SDS011;5880;52.342;9.662;2024-02-04T08:07:30;4.23;;;1.40;;
11646;SDS011;5880;52.342;9.662;2024-02-04T08:09:56;2.53;;;1.47;;
11646;SDS011;5880;52.342;9.662;2024-02-04T08:12:22;3.30;;;1.67;;
11646;SDS011;5880;52.342;9.662;2024-02-04T08:14:48;1.77;;;1.33;;
11646;SDS011;5880;52.342;9.662;2024-02-04T08:17:14;3.33;;;1.60;;
11646;SDS011;5880;52.342;9.662;2024-02-04T08:19:40;2.80;;;1.20;;
11646;SDS011;5880;52.342;9.662;2024-02-04T08:22:06;3.00;;;1.13;;
11646;SDS011;5880;52.342;9.662;2024-02-04T08:24:32;3.07;;;1.90;;
11646;SDS011;5880;52.342;9.662;2024-02-04T08:26:58;2.43;;;1.30;;
11646;SDS011;5880;52.342;9.662;2024-02-04T08:29:24;3.47;;;1.20;;
11646;SDS011;5880;52.342;9.662;2024-02-04T08:31:51;2.17;;;1.20;;
11646;SDS011;5880;52.342;9.662;2024-02-04T08:34:18;2.73;;;1.10;;
11646;SDS011;5880;52.342;9.662;2024-02-04T08:36:45;2.73;;;1.33;;
11646;SDS011;5880;52.342;9.662;2024-02-04T08:39:11;2.70;;;1.07;;
11646;SDS011;5880;52.342;9.662;2024-02-04T08:41:36;2.60;;;1.17;;
11646;SDS011;5880;52.342;9.662;2024-02-04T08:44:02;2.23;;;1.10;;
11646;SDS011;5880;52.342;9.662;2024-02-04T08:46:28;2.70;;;1.20;;
11646;SDS011;5880;52.342;9.662;2024-02-04T08:48:53;4.47;;;1.27;;
11646;SDS011;5880;52.342;9.662;2024-02-04T08:51:19;3.13;;;1.00;;
11646;SDS011;5880;52.342;9.662;2024-02-04T08:53:45;4.03;;;1.40;;
11646;SDS011;5880;52.342;9.662;2024-02-04T08:56:10;3.10;;;1.47;;
11646;SDS011;5880;52.342;9.662;2024-02-04T08:58:36;2.97;;;1.40;;
11646;SDS011;5880;52.342;9.662;2024-02-04T09:01:05;3.20;;;1.20;;
11646;SDS011;5880;52.342;9.662;2024-02-04T09:03:31;3.80;;;1.40;;
11646;SDS011;5880;52.342;9.662;2024-02-04T09:05:58;3.93;;;1.20;;
11646;SDS011;5880;52.342;9.662;2024-02-04T09:08:24;2.87;;;1.13;;
11646;SDS011;5880;52.342;9.662;2024-02-04T09:10:50;1.93;;;1.07;;
11646;SDS011;5880;52.342;9.662;2024-02-04T09:13:17;1.77;;;1.10;;
11646;SDS011;5880;52.342;9.662;2024-02-04T09:15:43;2.87;;;1.10;;
11646;SDS011;5880;52.342;9.662;2024-02-04T09:18:08;2.83;;;1.20;;
11646;SDS011;5880;52.342;9.662;2024-02-04T09:20:34;4.17;;;1.13;;
11646;SDS011;5880;52.342;9.662;2024-02-04T09:23:00;2.90;;;1.33;;
11646;SDS011;5880;52.342;9.662;2024-02-04T09:25:25;3.90;;;1.50;;
11646;SDS011;5880;52.342;9.662;2024-02-04T09:27:51;4.63;;;1.33;;
11646;SDS011;5880;52.342;9.662;2024-02-04T09:30:17;2.70;;;1.10;;
11646;SDS011;5880;52.342;9.662;2024-02-04T09:32:42;4.57;;;1.47;;
11646;SDS011;5880;52.342;9.662;2024-02-04T09:35:08;4.27;;;1.97;;
11646;SDS011;5880;52.342;9.662;2024-02-04T09:37:36;4.23;;;1.40;;
11646;SDS011;5880;52.342;9.662;2024-02-04T09:40:02;3.20;;;1.40;;
11646;SDS011;5880;52.342;9.662;2024-02-04T09:42:29;3.43;;;1.37;;
11646;SDS011;5880;52.342;9.662;2024-02-04T09:44:56;4.30;;;1.50;;
11646;SDS011;5880;52.342;9.662;2024-02-04T09:47:22;3.80;;;1.40;;
11646;SDS011;5880;52.342;9.662;2024-02-04T09:49:48;4.30;;;1.57;;
11646;SDS011;5880;52.342;9.662;2024-02-04T09:52:14;4.53;;;1.50;;
11646;SDS011;5880;52.342;9.662;2024-02-04T09:54:49;2.47;;;1.20;;
11646;SDS011;5880;52.342;9.662;2024-02-04T09:57:24;4.23;;;1.50;;
11646;SDS011;5880;52.342;9.662;2024-02-04T09:59:49;3.87;;;1.53;;
11646;SDS011;5880;52.342;9.662;2024-02-04T10:02:15;3.03;;;1.37;;
11646;SDS011;5880;52.342;9.662;2024-02-04T10:04:42;5.77;;;1.40;;
11646;SDS011;5880;52.342;9.662;2024-02-04T10:07:07;4.17;;;1.30;;
11646;SDS011;5880;52.342;9.662;2024-02-04T10:09:34;3.43;;;1.53;;
11646;SDS011;5880;52.342;9.662;2024-02-04T10:11:59;3.53;;;1.50;;
11646;SDS011;5880;52.342;9.662;2024-02-04T10:14:25;4.00;;;1.40;;
11646;SDS011;5880;52.342;9.662;2024-02-04T10:16:51;5.33;;;1.40;;
11646;SDS011;5880;52.342;9.662;2024-02-04T10:19:18;6.27;;;1.50;;
11646;SDS011;5880;52.342;9.662;2024-02-04T10:21:43;5.27;;;1.73;;
11646;SDS011;5880;52.342;9.662;2024-02-04T10:24:09;4.17;;;1.80;;
11646;SDS011;5880;52.342;9.662;2024-02-04T10:26:35;4.70;;;1.60;;
11646;SDS011;5880;52.342;9.662;2024-02-04T10:29:02;2.97;;;1.37;;
11646;SDS011;5880;52.342;9.662;2024-02-04T10:31:28;2.93;;;1.50;;
11646;SDS011;5880;52.342;9.662;2024-02-04T10:33:54;2.97;;;1.23;;
11646;SDS011;5880;52.342;9.662;2024-02-04T10:36:21;3.07;;;1.60;;
11646;SDS011;5880;52.342;9.662;2024-02-04T10:38:47;2.87;;;1.40;;
11646;SDS011;5880;52.342;9.662;2024-02-04T10:41:14;3.90;;;1.67;;
11646;SDS011;5880;52.342;9.662;2024-02-04T10:43:43;5.00;;;1.70;;
11646;SDS011;5880;52.342;9.662;2024-02-04T10:46:13;4.33;;;1.43;;
11646;SDS011;5880;52.342;9.662;2024-02-04T10:48:49;2.87;;;1.40;;
11646;SDS011;5880;52.342;9.662;2024-02-04T10:51:22;4.43;;;1.87;;
11646;SDS011;5880;52.342;9.662;2024-02-04T10:53:56;2.47;;;1.40;;
11646;SDS011;5880;52.342;9.662;2024-02-04T10:56:32;3.97;;;1.60;;
11646;SDS011;5880;52.342;9.662;2024-02-04T10:59:08;5.37;;;1.60;;
11646;SDS011;5880;52.342;9.662;2024-02-04T11:01:38;4.03;;;1.43;;
11646;SDS011;5880;52.342;9.662;2024-02-04T11:04:05;3.23;;;1.40;;
11646;SDS011;5880;52.342;9.662;2024-02-04T11:06:32;3.73;;;1.70;;
11646;SDS011;5880;52.342;9.662;2024-02-04T11:09:00;4.53;;;1.67;;
11646;SDS011;5880;52.342;9.662;2024-02-04T11:11:26;2.27;;;1.60;;
11646;SDS011;5880;52.342;9.662;2024-02-04T11:13:54;4.07;;;1.70;;
11646;SDS011;5880;52.342;9.662;2024-02-04T11:16:40;2.67;;;1.50;;
11646;SDS011;5880;52.342;9.662;2024-02-04T11:27:59;4.23;;;1.87;;
11646;SDS011;5880;52.342;9.662;2024-02-04T11:30:25;3.87;;;1.60;;
11646;SDS011;5880;52.342;9.662;2024-02-04T11:32:50;3.07;;;1.40;;
11646;SDS011;5880;52.342;9.662;2024-02-04T11:35:16;3.27;;;1.60;;
11646;SDS011;5880;52.342;9.662;2024-02-04T11:37:42;3.43;;;1.57;;
11646;SDS011;5880;52.342;9.662;2024-02-04T11:40:13;5.60;;;1.70;;
11646;SDS011;5880;52.342;9.662;2024-02-04T11:42:41;4.80;;;1.57;;
11646;SDS011;5880;52.342;9.662;2024-02-04T11:47:36;3.97;;;1.47;;
11646;SDS011;5880;52.342;9.662;2024-02-04T11:50:04;3.33;;;1.20;;
11646;SDS011;5880;52.342;9.662;2024-02-04T11:52:30;2.63;;;1.07;;
11646;SDS011;5880;52.342;9.662;2024-02-04T11:54:56;5.03;;;1.53;;
11646;SDS011;5880;52.342;9.662;2024-02-04T11:57:22;4.70;;;1.80;;
11646;SDS011;5880;52.342;9.662;2024-02-04T11:59:48;3.77;;;1.77;;
11646;SDS011;5880;52.342;9.662;2024-02-04T12:02:16;2.40;;;1.20;;
11646;SDS011;5880;52.342;9.662;2024-02-04T12:04:43;2.70;;;1.20;;
11646;SDS011;5880;52.342;9.662;2024-02-04T12:07:10;4.90;;;1.60;;
11646;SDS011;5880;52.342;9.662;2024-02-04T12:09:36;3.13;;;1.80;;
11646;SDS011;5880;52.342;9.662;2024-02-04T12:12:03;2.80;;;1.40;;
11646;SDS011;5880;52.342;9.662;2024-02-04T12:14:29;2.03;;;1.33;;
11646;SDS011;5880;52.342;9.662;2024-02-04T12:16:56;4.17;;;1.60;;
11646;SDS011;5880;52.342;9.662;2024-02-04T12:19:22;3.70;;;1.37;;
11646;SDS011;5880;52.342;9.662;2024-02-04T12:21:49;3.67;;;1.37;;
11646;SDS011;5880;52.342;9.662;2024-02-04T12:24:15;2.67;;;1.23;;
11646;SDS011;5880;52.342;9.662;2024-02-04T12:26:41;3.57;;;1.20;;
11646;SDS011;5880;52.342;9.662;2024-02-04T12:29:10;3.27;;;1.10;;
11646;SDS011;5880;52.342;9.662;2024-02-04T12:31:35;3.90;;;1.20;;
11646;SDS011;5880;52.342;9.662;2024-02-04T12:34:01;2.83;;;1.40;;
11646;SDS011;5880;52.342;9.662;2024-02-04T12:38:54;2.50;;;1.20;;
11646;SDS011;5880;52.342;9.662;2024-02-04T12:41:22;2.00;;;1.20;;
11646;SDS011;5880;52.342;9.662;2024-02-04T12:43:55;2.07;;;1.33;;
11646;SDS011;5880;52.342;9.662;2024-02-04T12:46:28;2.57;;;1.30;;
11646;SDS011;5880;52.342;9.662;2024-02-04T12:48:54;3.20;;;1.53;;
11646;SDS011;5880;52.342;9.662;2024-02-04T12:54:08;2.10;;;1.30;;
11646;SDS011;5880;52.342;9.662;2024-02-04T12:56:44;3.10;;;1.17;;
11646;SDS011;5880;52.342;9.662;2024-02-04T12:59:10;1.60;;;1.07;;
11646;SDS011;5880;52.342;9.662;2024-02-04T13:01:37;2.17;;;1.20;;
11646;SDS011;5880;52.342;9.662;2024-02-04T13:04:03;0.97;;;0.90;;
11646;SDS011;5880;52.342;9.662;2024-02-04T13:06:30;2.27;;;0.97;;
11646;SDS011;5880;52.342;9.662;2024-02-04T13:09:03;1.47;;;1.00;;
11646;SDS011;5880;52.342;9.662;2024-02-04T13:11:31;3.20;;;1.20;;
11646;SDS011;5880;52.342;9.662;2024-02-04T13:13:56;2.57;;;1.00;;
11646;SDS011;5880;52.342;9.662;2024-02-04T13:16:22;1.87;;;1.10;;
11646;SDS011;5880;52.342;9.662;2024-02-04T13:18:52;1.77;;;1.07;;
11646;SDS011;5880;52.342;9.662;2024-02-04T13:21:18;2.20;;;1.10;;
11646;SDS011;5880;52.342;9.662;2024-02-04T13:23:46;1.43;;;1.20;;
11646;SDS011;5880;52.342;9.662;2024-02-04T13:26:15;2.60;;;1.23;;
11646;SDS011;5880;52.342;9.662;2024-02-04T13:28:42;1.77;;;1.00;;
11646;SDS011;5880;52.342;9.662;2024-02-04T13:31:08;2.03;;;1.10;;
11646;SDS011;5880;52.342;9.662;2024-02-04T13:33:34;2.53;;;1.10;;
11646;SDS011;5880;52.342;9.662;2024-02-04T13:36:00;1.13;;;1.03;;
11646;SDS011;5880;52.342;9.662;2024-02-04T13:38:26;2.67;;;1.10;;
11646;SDS011;5880;52.342;9.662;2024-02-04T13:40:52;1.57;;;1.33;;
11646;SDS011;5880;52.342;9.662;2024-02-04T13:43:18;1.83;;;1.27;;
11646;SDS011;5880;52.342;9.662;2024-02-04T13:45:44;1.70;;;1.10;;
11646;SDS011;5880;52.342;9.662;2024-02-04T13:48:09;1.47;;;1.10;;
11646;SDS011;5880;52.342;9.662;2024-02-04T13:50:35;1.83;;;1.30;;
11646;SDS011;5880;52.342;9.662;2024-02-04T13:53:02;3.47;;;1.20;;
11646;SDS011;5880;52.342;9.662;2024-02-04T13:55:29;2.07;;;1.20;;
11646;SDS011;5880;52.342;9.662;2024-02-04T13:57:55;1.63;;;1.37;;
11646;SDS011;5880;52.342;9.662;2024-02-04T14:00:21;1.67;;;1.20;;
11646;SDS011;5880;52.342;9.662;2024-02-04T14:02:46;2.80;;;1.40;;
11646;SDS011;5880;52.342;9.662;2024-02-04T14:05:12;1.40;;;1.30;;
11646;SDS011;5880;52.342;9.662;2024-02-04T14:07:38;3.90;;;1.60;;
11646;SDS011;5880;52.342;9.662;2024-02-04T14:10:03;1.53;;;1.13;;
11646;SDS011;5880;52.342;9.662;2024-02-04T14:12:29;2.80;;;1.30;;
11646;SDS011;5880;52.342;9.662;2024-02-04T14:14:56;2.47;;;1.40;;
11646;SDS011;5880;52.342;9.662;2024-02-04T14:17:22;1.50;;;1.17;;
11646;SDS011;5880;52.342;9.662;2024-02-04T14:19:48;1.80;;;1.30;;
11646;SDS011;5880;52.342;9.662;2024-02-04T14:22:16;2.03;;;1.50;;
11646;SDS011;5880;52.342;9.662;2024-02-04T14:24:46;1.53;;;1.40;;
11646;SDS011;5880;52.342;9.662;2024-02-04T14:27:12;2.17;;;1.80;;
11646;SDS011;5880;52.342;9.662;2024-02-04T14:29:37;3.40;;;1.77;;
11646;SDS011;5880;52.342;9.662;2024-02-04T14:32:03;2.47;;;1.97;;
11646;SDS011;5880;52.342;9.662;2024-02-04T14:34:29;2.13;;;1.93;;
11646;SDS011;5880;52.342;9.662;2024-02-04T14:36:55;2.00;;;1.80;;
11646;SDS011;5880;52.342;9.662;2024-02-04T14:39:21;2.00;;;1.80;;
11646;SDS011;5880;52.342;9.662;2024-02-04T14:41:46;2.27;;;1.90;;
11646;SDS011;5880;52.342;9.662;2024-02-04T14:44:13;3.33;;;1.70;;
11646;SDS011;5880;52.342;9.662;2024-02-04T14:46:38;2.03;;;1.50;;
11646;SDS011;5880;52.342;9.662;2024-02-04T14:49:04;2.10;;;1.60;;
11646;SDS011;5880;52.342;9.662;2024-02-04T14:51:30;2.40;;;2.20;;
11646;SDS011;5880;52.342;9.662;2024-02-04T14:53:57;2.13;;;1.70;;
11646;SDS011;5880;52.342;9.662;2024-02-04T14:56:23;2.07;;;1.83;;
11646;SDS011;5880;52.342;9.662;2024-02-04T14:58:49;2.63;;;1.80;;
11646;SDS011;5880;52.342;9.662;2024-02-04T15:01:14;1.90;;;1.70;;
11646;SDS011;5880;52.342;9.662;2024-02-04T15:03:40;2.10;;;1.90;;
11646;SDS011;5880;52.342;9.662;2024-02-04T15:06:06;2.13;;;1.93;;
11646;SDS011;5880;52.342;9.662;2024-02-04T15:08:32;2.17;;;1.97;;
11646;SDS011;5880;52.342;9.662;2024-02-04T15:10:57;1.90;;;1.80;;
11646;SDS011;5880;52.342;9.662;2024-02-04T15:13:23;2.20;;;2.00;;
11646;SDS011;5880;52.342;9.662;2024-02-04T15:15:50;3.37;;;1.73;;
11646;SDS011;5880;52.342;9.662;2024-02-04T15:18:16;3.50;;;1.97;;
11646;SDS011;5880;52.342;9.662;2024-02-04T15:20:43;3.10;;;2.10;;